PWSweather.com
Personal Weather Stations
Station Observations
APRSFL1
Magnolia Valley, New Port Richey, FL 34653

Magnolia ValleyNew Port Richey, FL 34653

Lat: 28.26, Lon: -82.688

Elevation: 19

Station Type: Davis Vantage Pro 2 Plus with 70ft high Webcam

http://www.aprsfl.net/weather

Latest ConditionsUpdated 6:50:08 AM EDT Saturday, Nov 1, 2014
Currently Today's Max Today's Min Today's Average
Temperature 62.9°F17.2°C 69.3°F20.7°C 62.5°F16.9°C 67.1°F19.5°C
Dew Point 55.2°F12.9°C 55.2°F12.9°C 49.7°F9.8°C 51.0°F10.6°C
Winds 15.0 mph WNW24.1 kmh WNW 15.0 mph WNW24.1 kmh WNW - 3.2 mph 5.1 kmh
Wind Gusts 21.0 mph33.8 kmh 21.0 mph33.8 kmh - -
Humidity 76% 76% 52% 56%
Pressure 30.00 in1015.9 mb 30.00 in1015.9 mb 29.93 in1013.5 mb -
Hour Temp Dew Point Humidity Winds Wind Gusts Pressure Precip Precip Rate Daily Precip Total
06:50 AM 62.9°F17.2°C 55.2°F12.9°C 76% 15.0 mph WNW24.1 kmh WNW 21.0 mph33.8 kmh 30.00 in1015.9 mb 0.00 in0.0 mm 0.00 in/hr0.0 mm/hr 0.00 in0.0 mm
05:45 AM 62.5°F16.9°C 54.5°F12.5°C 75% 4.0 mph N6.4 kmh N 9.0 mph14.5 kmh 29.97 in1014.9 mb 0.00 in0.0 mm 0.00 in/hr0.0 mm/hr 0.00 in0.0 mm
04:05 AM 68.8°F20.4°C 53.4°F11.9°C 58% 7.0 mph W11.3 kmh W 13.0 mph20.9 kmh 29.93 in1013.5 mb 0.00 in0.0 mm 0.00 in/hr0.0 mm/hr 0.00 in0.0 mm
03:00 AM 69.3°F20.7°C 50.9°F10.5°C 52% 8.0 mph WSW12.9 kmh WSW 8.0 mph12.9 kmh 29.93 in1013.5 mb 0.00 in0.0 mm 0.00 in/hr0.0 mm/hr 0.00 in0.0 mm
02:00 AM 64.7°F18.2°C 51.0°F10.6°C 61% 1.0 mph NW1.6 kmh NW 3.0 mph4.8 kmh 29.94 in1013.9 mb 0.00 in0.0 mm 0.00 in/hr0.0 mm/hr 0.00 in0.0 mm
01:55 AM 65.6°F18.7°C 51.8°F11.0°C 61% 1.0 mph W1.6 kmh W 3.0 mph4.8 kmh 29.94 in1013.9 mb 0.00 in0.0 mm 0.00 in/hr0.0 mm/hr 0.00 in0.0 mm
01:50 AM 65.6°F18.7°C 50.4°F10.2°C 58% 2.0 mph NW3.2 kmh NW 4.0 mph6.4 kmh 29.94 in1013.9 mb 0.00 in0.0 mm 0.00 in/hr0.0 mm/hr 0.00 in0.0 mm
01:45 AM 66.7°F19.3°C 51.0°F10.6°C 57% 1.0 mph NW1.6 kmh NW 1.0 mph1.6 kmh 29.94 in1013.9 mb 0.00 in0.0 mm 0.00 in/hr0.0 mm/hr 0.00 in0.0 mm
01:40 AM 67.1°F19.5°C 50.4°F10.2°C 55% 1.0 mph WNW1.6 kmh WNW 2.0 mph3.2 kmh 29.94 in1013.9 mb 0.00 in0.0 mm 0.00 in/hr0.0 mm/hr 0.00 in0.0 mm
01:35 AM 67.2°F19.6°C 50.0°F10.0°C 54% 4.0 mph NW6.4 kmh NW 4.0 mph6.4 kmh 29.94 in1013.9 mb 0.00 in0.0 mm 0.00 in/hr0.0 mm/hr 0.00 in0.0 mm
01:30 AM 67.4°F19.7°C 50.2°F10.1°C 54% 1.0 mph NW1.6 kmh NW 3.0 mph4.8 kmh 29.94 in1013.9 mb 0.00 in0.0 mm 0.00 in/hr0.0 mm/hr 0.00 in0.0 mm
01:25 AM 67.3°F19.6°C 50.1°F10.1°C 54% 5.0 mph NW8.0 kmh NW 5.0 mph8.0 kmh 29.94 in1013.9 mb 0.00 in0.0 mm 0.00 in/hr0.0 mm/hr 0.00 in0.0 mm
01:20 AM 67.4°F19.7°C 50.2°F10.1°C 54% 2.0 mph WNW3.2 kmh WNW 5.0 mph8.0 kmh 29.94 in1013.9 mb 0.00 in0.0 mm 0.00 in/hr0.0 mm/hr 0.00 in0.0 mm
01:15 AM 67.4°F19.7°C 49.7°F9.8°C 53% 3.0 mph WNW4.8 kmh WNW 3.0 mph4.8 kmh 29.94 in1013.9 mb 0.00 in0.0 mm 0.00 in/hr0.0 mm/hr 0.00 in0.0 mm
01:10 AM 67.5°F19.7°C 49.8°F9.9°C 53% 1.0 mph NW1.6 kmh NW 2.0 mph3.2 kmh 29.94 in1013.9 mb 0.00 in0.0 mm 0.00 in/hr0.0 mm/hr 0.00 in0.0 mm
01:05 AM 67.5°F19.7°C 50.3°F10.2°C 54% 2.0 mph NW3.2 kmh NW 4.0 mph6.4 kmh 29.94 in1013.9 mb 0.00 in0.0 mm 0.00 in/hr0.0 mm/hr 0.00 in0.0 mm
01:00 AM 67.6°F19.8°C 50.9°F10.5°C 55% 3.0 mph NW4.8 kmh NW 3.0 mph4.8 kmh 29.94 in1013.9 mb 0.00 in0.0 mm 0.00 in/hr0.0 mm/hr 0.00 in0.0 mm
12:55 AM 67.7°F19.8°C 50.5°F10.3°C 54% 3.0 mph NW4.8 kmh NW 3.0 mph4.8 kmh 29.95 in1014.2 mb 0.00 in0.0 mm 0.00 in/hr0.0 mm/hr 0.00 in0.0 mm
12:50 AM 67.7°F19.8°C 50.5°F10.3°C 54% 4.0 mph WNW6.4 kmh WNW 6.0 mph9.7 kmh 29.95 in1014.2 mb 0.00 in0.0 mm 0.00 in/hr0.0 mm/hr 0.00 in0.0 mm
12:45 AM 67.8°F19.9°C 50.6°F10.3°C 54% 4.0 mph W6.4 kmh W 5.0 mph8.0 kmh 29.95 in1014.2 mb 0.00 in0.0 mm 0.00 in/hr0.0 mm/hr 0.00 in0.0 mm
12:40 AM 67.7°F19.8°C 50.5°F10.3°C 54% 3.0 mph NNW4.8 kmh NNW 5.0 mph8.0 kmh 29.95 in1014.2 mb 0.00 in0.0 mm 0.00 in/hr0.0 mm/hr 0.00 in0.0 mm
12:35 AM 67.7°F19.8°C 51.0°F10.6°C 55% 4.0 mph NW6.4 kmh NW 5.0 mph8.0 kmh 29.95 in1014.2 mb 0.00 in0.0 mm 0.00 in/hr0.0 mm/hr 0.00 in0.0 mm
12:30 AM 67.5°F19.7°C 51.3°F10.7°C 56% 3.0 mph NW4.8 kmh NW 5.0 mph8.0 kmh 29.95 in1014.2 mb 0.00 in0.0 mm 0.00 in/hr0.0 mm/hr 0.00 in0.0 mm
12:25 AM 67.7°F19.8°C 51.0°F10.6°C 55% 2.0 mph WNW3.2 kmh WNW 8.0 mph12.9 kmh 29.95 in1014.2 mb 0.00 in0.0 mm 0.00 in/hr0.0 mm/hr 0.00 in0.0 mm
12:20 AM 67.9°F19.9°C 50.7°F10.4°C 54% 2.0 mph NW3.2 kmh NW 3.0 mph4.8 kmh 29.95 in1014.2 mb 0.00 in0.0 mm 0.00 in/hr0.0 mm/hr 0.00 in0.0 mm
12:15 AM 67.9°F19.9°C 50.7°F10.4°C 54% 2.0 mph W3.2 kmh W 3.0 mph4.8 kmh 29.95 in1014.2 mb 0.00 in0.0 mm 0.00 in/hr0.0 mm/hr 0.00 in0.0 mm
12:10 AM 68.0°F20.0°C 50.8°F10.4°C 54% 1.0 mph NW1.6 kmh NW 2.0 mph3.2 kmh 29.95 in1014.2 mb 0.00 in0.0 mm 0.00 in/hr0.0 mm/hr 0.00 in0.0 mm
12:05 AM 68.1°F20.1°C 50.3°F10.2°C 53% 2.0 mph NW3.2 kmh NW 7.0 mph11.3 kmh 29.95 in1014.2 mb 0.00 in0.0 mm 0.00 in/hr0.0 mm/hr 0.00 in0.0 mm
12:00 AM 68.2°F20.1°C 50.4°F10.2°C 53% 2.0 mph W3.2 kmh W 4.0 mph6.4 kmh 29.95 in1014.2 mb 0.00 in0.0 mm 0.00 in/hr0.0 mm/hr 0.00 in0.0 mm